Terminal Aerodrome Forecast
Issued by NWS Denver/Boulder, CO

Home | Current Version | Previous Version | Text Only | Print | Product List | Glossary On
Versions: 1 2 3 4 5 6 7 8 9 10 11 12 13 14 15 16 17 18 19 20 21 22 23 24 25 26 27 28 29 30 31 32 33 34 35 36 37 38 39 40 41 42 43 44 45 46 47 48 49 50
908
FTUS45 KBOU 221139
TAFDEN
TAF
KDEN 221139Z 2212/2318 24008KT P6SM FEW100 SCT220
     FM221600 33007KT P6SM FEW070 SCT200
     FM222000 35013KT P6SM VCSH SCT070 BKN100
     FM222200 01022G34KT P6SM VCTS BKN035CB OVC050
      TEMPO 2222/2302 3SM SHRA BR OVC025
     FM230200 36010KT P6SM SCT040 BKN080
     FM230800 30008KT P6SM SCT080 BKN120
     FM231500 33012KT P6SM SCT080 BKN120=

USA.gov is the U.S. government's official web portal to all federal, state and local government web resources and services.